createdAt,value
2022-10-22T00:00:00.465Z,60.26
2022-10-22T00:02:32.282Z,60.35
2022-10-22T00:05:01.896Z,60.47
2022-10-22T00:07:36.051Z,59.94
2022-10-22T00:10:09.510Z,59.79
2022-10-22T00:12:43.719Z,58.99
2022-10-22T00:15:15.039Z,58.98
2022-10-22T00:17:42.133Z,59.01
2022-10-22T00:20:10.769Z,59.55
2022-10-22T00:22:37.929Z,58.56
2022-10-22T00:25:05.068Z,58.78
2022-10-22T00:27:33.097Z,58.39
2022-10-22T00:30:01.349Z,58.41
2022-10-22T00:32:28.591Z,58.46
2022-10-22T00:34:58.654Z,58.70
2022-10-22T00:37:26.039Z,58.70
2022-10-22T00:39:54.050Z,57.48
2022-10-22T00:42:27.442Z,57.42
2022-10-22T00:45:20.507Z,57.13
2022-10-22T00:48:03.278Z,58.32
2022-10-22T00:50:44.203Z,57.57
2022-10-22T00:53:29.842Z,58.22
2022-10-22T00:55:57.969Z,58.00
2022-10-22T00:58:35.047Z,57.59
2022-10-22T01:01:02.298Z,57.19
2022-10-22T01:03:29.573Z,57.08
2022-10-22T01:06:02.270Z,57.30
2022-10-22T01:08:51.892Z,57.63
2022-10-22T01:11:36.116Z,57.78
2022-10-22T01:14:33.492Z,58.58
2022-10-22T01:17:09.727Z,60.00
2022-10-22T01:20:16.789Z,60.91
2022-10-22T01:23:10.018Z,59.73
2022-10-22T01:25:46.843Z,59.91
2022-10-22T01:28:35.493Z,59.79
2022-10-22T01:31:03.559Z,60.24
2022-10-22T01:33:51.615Z,60.41
2022-10-22T01:36:23.800Z,60.12
2022-10-22T01:38:51.181Z,60.19
2022-10-22T01:41:21.480Z,59.81
2022-10-22T01:43:51.223Z,60.57
2022-10-22T01:46:23.015Z,60.18
2022-10-22T01:49:19.864Z,60.33
2022-10-22T01:52:14.682Z,60.33
2022-10-22T01:55:10.698Z,60.27
2022-10-22T01:57:56.131Z,60.07
2022-10-22T02:00:29.545Z,61.04
2022-10-22T02:03:24.738Z,60.79
2022-10-22T02:05:56.129Z,61.64
2022-10-22T02:08:31.254Z,62.23
2022-10-22T02:11:02.669Z,62.04
2022-10-22T02:13:41.296Z,62.03
2022-10-22T02:16:12.842Z,62.01
2022-10-22T02:18:57.753Z,62.01
2022-10-22T02:21:27.826Z,62.25
2022-10-22T02:23:54.757Z,62.37
2022-10-22T02:26:46.817Z,61.78
2022-10-22T02:29:32.002Z,62.30
2022-10-22T02:32:04.261Z,62.36
2022-10-22T02:34:36.744Z,62.32
2022-10-22T02:37:06.508Z,62.13
2022-10-22T02:39:41.067Z,62.12
2022-10-22T02:42:14.734Z,62.20
2022-10-22T02:44:45.878Z,61.03
2022-10-22T02:47:18.496Z,60.32
2022-10-22T02:49:53.114Z,59.87
2022-10-22T02:52:19.749Z,60.50
2022-10-22T02:54:49.559Z,60.32
2022-10-22T02:57:16.740Z,59.94
2022-10-22T02:59:43.420Z,59.33
2022-10-22T03:02:10.125Z,59.68
2022-10-22T03:04:36.847Z,59.27
2022-10-22T03:07:03.694Z,59.46
2022-10-22T03:09:30.594Z,60.04
2022-10-22T03:12:00.245Z,59.72
2022-10-22T03:14:26.901Z,59.73
2022-10-22T03:16:59.729Z,59.61
2022-10-22T03:19:27.494Z,59.57
2022-10-22T03:22:01.379Z,59.68
2022-10-22T03:24:50.508Z,59.17
2022-10-22T03:27:24.690Z,59.46
2022-10-22T03:29:54.305Z,59.83
2022-10-22T03:32:21.028Z,60.06
2022-10-22T03:34:48.106Z,60.15
2022-10-22T03:37:14.912Z,59.83
2022-10-22T03:39:42.065Z,60.22
2022-10-22T03:42:15.870Z,60.48
2022-10-22T03:44:42.505Z,60.03
2022-10-22T03:47:18.598Z,60.01
2022-10-22T03:49:48.298Z,59.96
2022-10-22T03:52:15.369Z,60.01
2022-10-22T03:54:42.821Z,59.61
2022-10-22T03:57:10.475Z,59.29
2022-10-22T03:59:44.865Z,59.67
2022-10-22T04:02:13.530Z,59.38
2022-10-22T04:04:40.715Z,59.40
2022-10-22T04:07:11.974Z,59.77
2022-10-22T04:09:41.638Z,59.43
2022-10-22T04:12:09.612Z,59.31
2022-10-22T04:14:36.688Z,59.35
2022-10-22T04:17:03.719Z,59.74
2022-10-22T04:19:30.631Z,59.88
2022-10-22T04:22:00.871Z,60.15
2022-10-22T04:24:34.613Z,60.37
2022-10-22T04:27:01.491Z,60.26
2022-10-22T04:29:37.429Z,59.59
2022-10-22T04:32:04.588Z,60.07
2022-10-22T04:34:31.494Z,60.00
2022-10-22T04:36:58.174Z,60.33
2022-10-22T04:39:27.932Z,60.09
2022-10-22T04:41:54.666Z,60.38
2022-10-22T04:44:21.499Z,59.66
2022-10-22T04:46:54.324Z,59.93
2022-10-22T04:49:21.091Z,60.32
2022-10-22T04:51:48.975Z,60.29
2022-10-22T04:54:15.900Z,60.22
2022-10-22T04:56:44.427Z,60.05
2022-10-22T04:59:15.748Z,60.31
2022-10-22T05:01:47.393Z,60.37
2022-10-22T05:04:16.339Z,60.70
2022-10-22T05:06:44.375Z,60.60
2022-10-22T05:09:16.321Z,60.38
2022-10-22T05:11:48.911Z,60.35
2022-10-22T05:14:44.678Z,60.11
2022-10-22T05:17:12.562Z,60.43
2022-10-22T05:19:39.217Z,60.09
2022-10-22T05:22:08.975Z,59.94
2022-10-22T05:24:40.871Z,60.21
2022-10-22T05:27:08.936Z,60.38
2022-10-22T05:29:37.025Z,60.44
2022-10-22T05:32:06.462Z,60.50
2022-10-22T05:34:36.205Z,59.77
2022-10-22T05:37:07.360Z,59.72
2022-10-22T05:39:40.360Z,59.86
2022-10-22T05:42:07.114Z,59.78
2022-10-22T05:44:34.058Z,59.86
2022-10-22T05:47:02.840Z,59.59
2022-10-22T05:49:29.737Z,59.46
2022-10-22T05:51:58.249Z,59.02
2022-10-22T05:54:34.423Z,59.41
2022-10-22T05:57:01.285Z,59.60
2022-10-22T05:59:28.357Z,59.18
2022-10-22T06:01:59.802Z,59.10
2022-10-22T06:04:30.736Z,59.14
2022-10-22T06:06:58.157Z,58.94
2022-10-22T06:09:33.919Z,59.34
2022-10-22T06:12:00.626Z,59.02
2022-10-22T06:14:32.775Z,59.16
2022-10-22T06:17:00.392Z,58.34
2022-10-22T06:19:29.945Z,59.27
2022-10-22T06:21:56.731Z,59.38
2022-10-22T06:24:24.348Z,58.91
2022-10-22T06:26:52.066Z,59.04
2022-10-22T06:29:18.878Z,59.22
2022-10-22T06:31:45.592Z,59.31
2022-10-22T06:34:21.515Z,59.45
2022-10-22T06:36:55.033Z,59.49
2022-10-22T06:39:21.849Z,59.64
2022-10-22T06:41:57.888Z,59.75
2022-10-22T06:44:24.766Z,60.11
2022-10-22T06:46:52.633Z,59.96
2022-10-22T06:49:21.507Z,59.50
2022-10-22T06:51:58.589Z,59.32
2022-10-22T06:54:25.262Z,59.66
2022-10-22T06:56:51.973Z,60.00
2022-10-22T06:59:18.697Z,59.91
2022-10-22T07:01:45.444Z,60.05
2022-10-22T07:04:13.265Z,60.54
2022-10-22T07:06:41.117Z,59.85
2022-10-22T07:09:08.268Z,60.42
2022-10-22T07:11:45.677Z,60.67
2022-10-22T07:14:13.232Z,60.64
2022-10-22T07:16:43.347Z,60.54
2022-10-22T07:19:10.067Z,60.34
2022-10-22T07:21:36.879Z,60.61
2022-10-22T07:24:07.175Z,60.71
2022-10-22T07:26:33.911Z,60.78
2022-10-22T07:29:01.145Z,61.06
2022-10-22T07:31:30.320Z,60.91
2022-10-22T07:33:58.567Z,60.43
2022-10-22T07:36:26.161Z,60.83
2022-10-22T07:38:58.344Z,61.07
2022-10-22T07:41:24.935Z,60.86
2022-10-22T07:43:52.990Z,61.08
2022-10-22T07:46:20.835Z,60.82
2022-10-22T07:48:49.595Z,60.63
2022-10-22T07:51:17.290Z,61.03
2022-10-22T07:53:47.066Z,61.03
2022-10-22T07:56:14.186Z,60.52
2022-10-22T07:58:41.767Z,60.25
2022-10-22T08:01:08.745Z,60.34
2022-10-22T08:03:36.086Z,59.79
2022-10-22T08:06:03.024Z,60.20
2022-10-22T08:08:33.682Z,60.58
2022-10-22T08:11:02.324Z,60.68
2022-10-22T08:13:30.930Z,60.86
2022-10-22T08:16:00.657Z,60.45
2022-10-22T08:18:28.276Z,61.04
2022-10-22T08:20:55.278Z,61.03
2022-10-22T08:23:25.947Z,60.41
2022-10-22T08:25:56.705Z,60.88
2022-10-22T08:28:23.761Z,61.38
2022-10-22T08:30:50.785Z,61.49
2022-10-22T08:33:20.683Z,60.92
2022-10-22T08:35:52.081Z,61.56
2022-10-22T08:38:19.610Z,60.94
2022-10-22T08:40:53.114Z,61.44
2022-10-22T08:44:03.881Z,61.13
2022-10-22T08:46:59.478Z,61.34
2022-10-22T08:49:38.384Z,60.22
2022-10-22T08:52:14.676Z,60.05
2022-10-22T08:54:53.086Z,60.57
2022-10-22T08:57:36.513Z,59.86
2022-10-22T09:00:36.824Z,60.08
2022-10-22T09:03:06.739Z,60.42
2022-10-22T09:05:36.954Z,60.39
2022-10-22T09:08:05.468Z,60.39
2022-10-22T09:14:18.291Z,60.39
2022-10-22T09:17:06.708Z,60.18
2022-10-22T09:20:11.085Z,60.71
2022-10-22T09:22:54.853Z,60.39
2022-10-22T09:25:27.433Z,60.69
2022-10-22T09:27:58.432Z,60.55
2022-10-22T09:30:37.939Z,60.27
2022-10-22T09:33:20.254Z,60.41
2022-10-22T09:36:05.855Z,60.60
2022-10-22T09:38:39.546Z,60.26
2022-10-22T09:41:06.772Z,59.39
2022-10-22T09:43:36.195Z,59.35
2022-10-22T09:46:06.073Z,59.09
2022-10-22T09:48:42.016Z,59.49
2022-10-22T09:51:21.833Z,59.51
2022-10-22T09:53:57.750Z,59.72
2022-10-22T09:56:36.305Z,59.20
2022-10-22T09:59:06.792Z,59.20
2022-10-22T10:01:40.995Z,59.46
2022-10-22T10:04:16.710Z,59.75
2022-10-22T10:06:45.310Z,59.23
2022-10-22T10:09:19.429Z,59.75
2022-10-22T10:11:53.550Z,60.01
2022-10-22T10:14:38.863Z,59.75
2022-10-22T10:17:11.875Z,59.20
2022-10-22T10:20:05.778Z,58.71
2022-10-22T10:22:50.873Z,58.70
2022-10-22T10:25:55.481Z,58.62
2022-10-22T10:28:57.963Z,58.79
2022-10-22T10:31:49.004Z,59.33
2022-10-22T10:34:44.027Z,59.49
2022-10-22T10:37:41.390Z,58.82
2022-10-22T10:40:28.506Z,58.76
2022-10-22T10:43:06.846Z,58.46
2022-10-22T10:45:55.782Z,58.82
2022-10-22T10:48:22.781Z,58.21
2022-10-22T10:51:15.438Z,58.23
2022-10-22T10:53:47.599Z,58.44
2022-10-22T10:56:17.194Z,58.47
2022-10-22T10:58:53.458Z,59.14
2022-10-22T11:01:51.401Z,58.92
2022-10-22T11:04:41.816Z,58.87
2022-10-22T11:07:33.551Z,59.34
2022-10-22T11:10:09.775Z,58.85
2022-10-22T11:12:44.618Z,58.99
2022-10-22T11:15:23.705Z,59.34
2022-10-22T11:17:56.184Z,59.28
2022-10-22T11:20:40.314Z,58.98
2022-10-22T11:23:37.003Z,58.79
2022-10-22T11:26:11.572Z,58.22
2022-10-22T11:28:52.837Z,57.51
2022-10-22T11:31:20.661Z,58.16
2022-10-22T11:34:32.159Z,58.00
2022-10-22T11:36:58.737Z,58.17
2022-10-22T11:40:04.021Z,58.77
2022-10-22T11:42:44.927Z,58.01
2022-10-22T11:45:15.323Z,58.38
2022-10-22T11:47:57.103Z,57.97
2022-10-22T11:50:29.398Z,58.03
2022-10-22T11:53:08.026Z,58.32
2022-10-22T11:55:49.338Z,57.75
2022-10-22T11:58:39.443Z,58.44
2022-10-22T12:01:12.305Z,57.88
2022-10-22T12:03:52.793Z,57.25
2022-10-22T12:06:23.432Z,57.37
2022-10-22T12:08:53.157Z,57.61
2022-10-22T12:11:48.663Z,58.10
2022-10-22T12:14:35.077Z,57.23
2022-10-22T12:17:12.754Z,57.11
2022-10-22T12:19:47.268Z,57.10
2022-10-22T12:22:28.347Z,57.62
2022-10-22T12:24:57.889Z,58.07
2022-10-22T12:27:41.274Z,58.21
2022-10-22T12:30:37.298Z,58.43
2022-10-22T12:33:18.376Z,58.36
2022-10-22T12:35:46.677Z,57.97
2022-10-22T12:38:18.807Z,57.64
2022-10-22T12:40:48.393Z,57.68
2022-10-22T12:43:27.990Z,57.97
2022-10-22T12:45:58.222Z,57.84
2022-10-22T12:48:34.662Z,57.59
2022-10-22T12:51:04.799Z,57.08
2022-10-22T12:53:43.677Z,57.56
2022-10-22T12:56:17.108Z,56.33
2022-10-22T12:58:58.108Z,55.26
2022-10-22T13:01:34.603Z,55.67
2022-10-22T13:04:31.060Z,56.39
2022-10-22T13:07:19.879Z,56.66
2022-10-22T13:09:59.139Z,58.20
2022-10-22T13:12:36.336Z,57.69
2022-10-22T13:15:41.560Z,57.07
2022-10-22T13:18:33.799Z,57.26
2022-10-22T13:21:04.511Z,57.32
2022-10-22T13:23:33.965Z,57.69
2022-10-22T13:26:16.538Z,58.02
2022-10-22T13:28:50.598Z,57.78
2022-10-22T13:31:25.395Z,58.20
2022-10-22T13:33:57.999Z,57.35
2022-10-22T13:36:25.097Z,57.59
2022-10-22T13:38:52.340Z,58.83
2022-10-22T13:41:27.562Z,57.79
2022-10-22T13:43:55.417Z,59.64
2022-10-22T13:46:23.813Z,58.95
2022-10-22T13:48:53.902Z,58.18
2022-10-22T13:51:31.510Z,58.47
2022-10-22T13:53:58.443Z,59.22
2022-10-22T13:56:26.156Z,60.26
2022-10-22T14:02:22.273Z,58.97
2022-10-22T14:05:03.533Z,59.19
2022-10-22T14:07:58.237Z,59.62
2022-10-22T14:10:32.112Z,58.46
2022-10-22T14:13:31.158Z,57.81
2022-10-22T14:16:29.219Z,57.90
2022-10-22T14:19:26.088Z,57.94
2022-10-22T14:21:57.209Z,57.97
2022-10-22T14:24:23.951Z,59.05
2022-10-22T14:26:50.786Z,59.56
2022-10-22T14:29:17.563Z,59.62
2022-10-22T14:31:46.735Z,59.41
2022-10-22T14:34:17.349Z,61.16
2022-10-22T14:36:45.795Z,59.96
2022-10-22T14:39:20.433Z,59.98
2022-10-22T14:41:47.786Z,61.70
2022-10-22T14:44:20.252Z,61.22
2022-10-22T14:46:48.286Z,60.53
2022-10-22T14:49:24.336Z,61.53
2022-10-22T14:51:52.005Z,60.50
2022-10-22T14:54:20.036Z,60.96
2022-10-22T14:56:46.856Z,61.16
2022-10-22T14:59:13.595Z,61.76
2022-10-22T15:01:46.076Z,61.78
2022-10-22T15:04:14.090Z,61.40
2022-10-22T15:06:41.175Z,61.35
2022-10-22T15:09:08.158Z,62.93
2022-10-22T15:11:35.118Z,60.97
2022-10-22T15:14:01.938Z,60.78
2022-10-22T15:16:30.021Z,62.70
2022-10-22T15:18:59.984Z,63.60
2022-10-22T15:21:27.455Z,61.83
2022-10-22T15:23:55.187Z,61.03
2022-10-22T15:26:24.282Z,60.77
2022-10-22T15:28:51.082Z,61.39
2022-10-22T15:31:45.652Z,62.09
2022-10-22T15:34:13.110Z,61.52
2022-10-22T15:36:42.997Z,62.12
2022-10-22T15:41:39.977Z,62.41
2022-10-22T15:44:08.760Z,60.66
2022-10-22T15:46:36.085Z,61.00
2022-10-22T15:49:03.165Z,62.34
2022-10-22T15:51:29.982Z,62.33
2022-10-22T15:53:59.013Z,63.25
2022-10-22T15:56:28.994Z,63.57
2022-10-22T15:59:03.041Z,62.94
2022-10-22T16:01:31.674Z,62.51
2022-10-22T16:04:03.612Z,63.34
2022-10-22T16:06:31.715Z,62.65
2022-10-22T16:09:01.198Z,62.42
2022-10-22T16:11:30.953Z,61.87
2022-10-22T16:13:59.418Z,62.76
2022-10-22T16:16:33.318Z,62.32
2022-10-22T16:19:10.201Z,64.08
2022-10-22T16:21:36.957Z,63.17
2022-10-22T16:24:07.954Z,62.44
2022-10-22T16:26:35.995Z,62.84
2022-10-22T16:29:07.355Z,63.14
2022-10-22T16:31:34.700Z,62.52
2022-10-22T16:34:09.857Z,62.33
2022-10-22T16:36:37.565Z,64.63
2022-10-22T16:39:06.600Z,63.87
2022-10-22T16:41:37.114Z,63.07
2022-10-22T16:44:07.808Z,62.23
2022-10-22T16:46:38.724Z,63.03
2022-10-22T16:49:08.784Z,65.01
2022-10-22T16:51:37.160Z,64.40
2022-10-22T16:54:06.800Z,64.63
2022-10-22T16:56:36.743Z,64.04
2022-10-22T16:59:03.694Z,65.54
2022-10-22T17:01:36.739Z,63.48
2022-10-22T17:04:06.413Z,63.21
2022-10-22T17:06:33.152Z,63.33
2022-10-22T17:09:00.165Z,66.03
2022-10-22T17:11:30.163Z,66.29
2022-10-22T17:13:57.291Z,64.47
2022-10-22T17:16:28.068Z,63.35
2022-10-22T17:18:57.721Z,63.41
2022-10-22T17:21:26.017Z,66.11
2022-10-22T17:23:57.342Z,66.85
2022-10-22T17:26:27.034Z,66.71
2022-10-22T17:28:56.733Z,66.60
2022-10-22T17:31:41.769Z,64.86
2022-10-22T17:34:17.605Z,64.38
2022-10-22T17:36:45.174Z,67.03
2022-10-22T17:39:17.632Z,64.45
2022-10-22T17:41:50.194Z,67.63
2022-10-22T17:44:19.133Z,67.67
2022-10-22T17:46:46.181Z,65.75
2022-10-22T17:49:17.505Z,64.21
2022-10-22T17:51:44.455Z,67.55
2022-10-22T17:54:15.037Z,66.83
2022-10-22T17:56:42.040Z,68.16
2022-10-22T17:59:12.629Z,67.17
2022-10-22T18:01:47.435Z,65.95
2022-10-22T18:04:16.519Z,65.65
2022-10-22T18:06:43.440Z,67.17
2022-10-22T18:09:18.305Z,67.50
2022-10-22T18:11:46.620Z,67.62
2022-10-22T18:14:13.595Z,67.83
2022-10-22T18:16:43.086Z,65.75
2022-10-22T18:19:25.318Z,65.33
2022-10-22T18:21:55.010Z,66.44
2022-10-22T18:24:21.860Z,64.59
2022-10-22T18:26:49.619Z,64.38
2022-10-22T18:29:18.504Z,65.04
2022-10-22T18:31:45.917Z,65.39
2022-10-22T18:34:12.711Z,66.70
2022-10-22T18:36:40.373Z,67.49
2022-10-22T18:39:07.584Z,67.32
2022-10-22T18:41:36.019Z,66.66
2022-10-22T18:44:07.743Z,65.63
2022-10-22T18:46:38.367Z,64.80
2022-10-22T18:49:07.210Z,65.42
2022-10-22T18:51:37.480Z,64.29
2022-10-22T18:54:11.591Z,66.23
2022-10-22T18:56:45.078Z,65.85
2022-10-22T18:59:23.408Z,67.32
2022-10-22T19:01:53.617Z,67.05
2022-10-22T19:04:23.803Z,66.25
2022-10-22T19:06:53.614Z,65.42
2022-10-22T19:09:20.448Z,67.37
2022-10-22T19:11:51.318Z,67.10
2022-10-22T19:14:22.672Z,66.49
2022-10-22T19:16:50.980Z,64.80
2022-10-22T19:19:20.340Z,65.49
2022-10-22T19:21:47.380Z,67.00
2022-10-22T19:24:15.859Z,66.28
2022-10-22T19:26:42.849Z,67.24
2022-10-22T19:29:14.650Z,67.49
2022-10-22T19:31:43.279Z,68.05
2022-10-22T19:34:13.520Z,68.98
2022-10-22T19:36:41.743Z,69.48
2022-10-22T19:39:15.376Z,69.94
2022-10-22T19:41:45.100Z,69.60
2022-10-22T19:44:12.968Z,68.55
2022-10-22T19:46:43.354Z,70.04
2022-10-22T19:49:11.330Z,70.52
2022-10-22T19:51:40.281Z,71.19
2022-10-22T19:54:11.852Z,71.52
2022-10-22T19:56:42.235Z,71.36
2022-10-22T19:59:09.648Z,71.54
2022-10-22T20:01:44.102Z,72.33
2022-10-22T20:04:15.334Z,71.57
2022-10-22T20:06:42.734Z,71.96
2022-10-22T20:09:13.786Z,71.42
2022-10-22T20:11:44.075Z,72.23
2022-10-22T20:14:13.221Z,71.09
2022-10-22T20:16:40.401Z,71.95
2022-10-22T20:19:08.819Z,72.05
2022-10-22T20:21:38.187Z,72.57
2022-10-22T20:24:23.052Z,72.64
2022-10-22T20:26:52.865Z,72.68
2022-10-22T20:29:20.839Z,70.23
2022-10-22T20:31:47.866Z,71.17
2022-10-22T20:34:14.798Z,71.66
2022-10-22T20:36:41.772Z,71.63
2022-10-22T20:39:15.321Z,71.81
2022-10-22T20:41:42.472Z,70.56
2022-10-22T20:44:15.447Z,71.58
2022-10-22T20:46:45.692Z,72.37
2022-10-22T20:49:17.499Z,72.97
2022-10-22T20:51:47.474Z,72.36
2022-10-22T20:54:15.545Z,72.89
2022-10-22T20:56:44.177Z,72.73
2022-10-22T20:59:21.806Z,72.23
2022-10-22T21:01:52.885Z,71.71
2022-10-22T21:04:21.533Z,71.72
2022-10-22T21:06:50.412Z,71.51
2022-10-22T21:09:18.385Z,71.08
2022-10-22T21:11:46.001Z,71.32
2022-10-22T21:14:14.536Z,71.00
2022-10-22T21:16:45.494Z,72.24
2022-10-22T21:19:13.084Z,72.19
2022-10-22T21:21:42.929Z,72.28
2022-10-22T21:24:10.006Z,71.82
2022-10-22T21:26:39.363Z,72.72
2022-10-22T21:29:07.450Z,72.28
2022-10-22T21:31:34.684Z,72.35
2022-10-22T21:34:01.483Z,72.75
2022-10-22T21:36:28.398Z,71.08
2022-10-22T21:38:55.304Z,72.75
2022-10-22T21:41:25.393Z,72.78
2022-10-22T21:43:52.226Z,73.51
2022-10-22T21:46:22.065Z,73.19
2022-10-22T21:48:55.987Z,73.67
2022-10-22T21:51:24.354Z,73.96
2022-10-22T21:56:22.491Z,73.22
2022-10-22T21:58:49.462Z,73.80
2022-10-22T22:01:17.406Z,72.77
2022-10-22T22:03:47.901Z,73.02
2022-10-22T22:06:22.026Z,73.61
2022-10-22T22:08:49.847Z,74.34
2022-10-22T22:11:20.210Z,74.47
2022-10-22T22:13:51.716Z,75.31
2022-10-22T22:16:27.264Z,75.22
2022-10-22T22:19:05.791Z,75.30
2022-10-22T22:21:33.847Z,74.76
2022-10-22T22:24:02.595Z,75.28
2022-10-22T22:26:30.467Z,75.21
2022-10-22T22:28:59.005Z,75.52
2022-10-22T22:31:35.333Z,75.16
2022-10-22T22:34:04.693Z,75.27
2022-10-22T22:36:40.373Z,74.91
2022-10-22T22:39:10.463Z,73.92
2022-10-22T22:41:38.365Z,74.41
2022-10-22T22:44:05.402Z,74.93
2022-10-22T22:46:32.698Z,73.63
2022-10-22T22:49:01.271Z,73.92
2022-10-22T22:51:28.177Z,73.96
2022-10-22T22:53:57.957Z,73.98
2022-10-22T22:56:26.945Z,74.27
2022-10-22T22:58:53.820Z,74.27
2022-10-22T23:01:30.535Z,73.49
2022-10-22T23:04:16.448Z,73.44
2022-10-22T23:06:43.754Z,73.59
2022-10-22T23:09:12.732Z,73.55
2022-10-22T23:11:40.803Z,73.44
2022-10-22T23:14:08.551Z,71.75
2022-10-22T23:16:39.851Z,70.65
2022-10-22T23:19:07.385Z,69.91
2022-10-22T23:21:37.630Z,70.33
2022-10-22T23:24:13.128Z,70.16
2022-10-22T23:26:46.865Z,70.62
2022-10-22T23:29:20.892Z,71.43
2022-10-22T23:31:49.124Z,71.84
2022-10-22T23:34:21.979Z,72.38
2022-10-22T23:36:49.121Z,72.11
2022-10-22T23:39:19.144Z,72.37
2022-10-22T23:41:49.086Z,73.05
2022-10-22T23:44:16.029Z,73.33
2022-10-22T23:46:43.100Z,72.79
2022-10-22T23:49:11.204Z,73.26
2022-10-22T23:51:38.700Z,73.94
2022-10-22T23:54:09.230Z,73.41
2022-10-22T23:56:36.309Z,73.06
2022-10-22T23:59:06.042Z,72.83
